Time;durP1;ratioP1;P1;durP2;ratioP2;P2;SDS_P1;SDS_P2;PMS_P1;PMS_P2;Temp;Humidity;BMP_temperature;BMP_pressure;BME280_temperature;BME280_humidity;BME280_pressure;Samples;Min_cycle;Max_cycle;Signal;HPM_P1;HPM_P2
2023/06/06 00:00:21;;;;;;;9.63;5.25;;;11.40;99.90;;;;;;6224495;22;20038;-76
2023/06/06 00:02:48;;;;;;;11.18;4.78;;;11.40;99.90;;;;;;6250480;22;20413;-76
2023/06/06 00:05:15;;;;;;;10.55;4.70;;;11.30;99.90;;;;;;6224607;22;20058;-76
2023/06/06 00:07:43;;;;;;;8.82;4.85;;;11.30;99.90;;;;;;6249911;22;20018;-76
2023/06/06 00:10:14;;;;;;;10.55;5.32;;;11.30;99.90;;;;;;6224889;22;20008;-76
2023/06/06 00:12:46;;;;;;;11.48;5.22;;;11.30;99.90;;;;;;6277828;22;20012;-76
2023/06/06 00:15:14;;;;;;;8.55;4.70;;;11.20;99.90;;;;;;6224767;22;20019;-76
2023/06/06 00:17:42;;;;;;;7.78;4.00;;;11.10;99.90;;;;;;6276936;22;20011;-76
2023/06/06 00:20:08;;;;;;;7.25;3.70;;;11.10;99.90;;;;;;6250736;22;20338;-76
2023/06/06 00:22:36;;;;;;;7.05;3.58;;;11.20;99.90;;;;;;6225021;22;20008;-76
2023/06/06 00:25:03;;;;;;;7.82;4.22;;;11.20;99.90;;;;;;6224506;22;20004;-76
2023/06/06 00:27:29;;;;;;;7.40;3.58;;;11.20;99.90;;;;;;6277200;22;20012;-76
2023/06/06 00:29:55;;;;;;;7.85;3.80;;;11.20;99.90;;;;;;6250095;22;20012;-76
2023/06/06 00:32:21;;;;;;;6.70;3.30;;;11.10;99.90;;;;;;6224901;22;20121;-76
2023/06/06 00:34:46;;;;;;;6.47;3.13;;;11.10;99.90;;;;;;6277187;22;20043;-76
2023/06/06 00:37:12;;;;;;;6.45;2.80;;;11.10;99.90;;;;;;6250018;22;20369;-76
2023/06/06 00:39:37;;;;;;;5.55;2.50;;;11.10;99.90;;;;;;6224659;22;20016;-75
2023/06/06 00:42:03;;;;;;;5.53;2.60;;;11.10;99.90;;;;;;6224953;22;20008;-76
2023/06/06 00:44:29;;;;;;;6.68;3.28;;;11.00;99.90;;;;;;6224218;22;20007;-76
2023/06/06 00:46:55;;;;;;;5.82;2.70;;;11.00;99.90;;;;;;6276883;22;20434;-76
2023/06/06 00:49:22;;;;;;;4.38;2.20;;;11.00;99.90;;;;;;6277080;22;20018;-76
2023/06/06 00:51:48;;;;;;;4.97;2.70;;;10.90;99.90;;;;;;6224297;22;20476;-76
2023/06/06 00:54:15;;;;;;;5.80;3.00;;;10.90;99.90;;;;;;6224739;22;20008;-76
2023/06/06 00:56:43;;;;;;;7.00;2.90;;;10.80;99.90;;;;;;6277002;22;20457;-76
2023/06/06 00:59:10;;;;;;;5.97;3.00;;;10.70;99.90;;;;;;6248820;22;20518;-75
2023/06/06 01:01:38;;;;;;;6.00;3.08;;;10.60;99.90;;;;;;6224659;22;20382;-76
2023/06/06 01:04:08;;;;;;;5.97;3.08;;;10.60;99.90;;;;;;6249392;22;20007;-76
2023/06/06 01:06:35;;;;;;;8.75;3.53;;;10.60;99.90;;;;;;6249643;22;20373;-76
2023/06/06 01:09:06;;;;;;;6.45;3.17;;;10.60;99.90;;;;;;6224623;22;20011;-76
2023/06/06 01:11:47;;;;;;;6.95;3.47;;;10.50;99.90;;;;;;6250294;22;20007;-76
2023/06/06 01:14:25;;;;;;;7.60;4.00;;;10.40;99.90;;;;;;6249476;22;20015;-76
2023/06/06 01:16:57;;;;;;;9.80;4.03;;;10.30;99.90;;;;;;6249847;22;20023;-76
2023/06/06 01:19:27;;;;;;;;;;;10.40;99.90;;;;;;6250383;22;20012;-76
2023/06/06 01:21:56;;;;;;;7.88;3.30;;;10.30;99.90;;;;;;6277239;22;19918;-76
2023/06/06 01:24:22;;;;;;;7.72;3.38;;;10.30;99.90;;;;;;6223425;22;20012;-76
2023/06/06 01:26:48;;;;;;;6.32;3.45;;;10.30;99.90;;;;;;6276756;22;20433;-76
2023/06/06 01:29:13;;;;;;;8.30;4.00;;;10.20;99.90;;;;;;6223655;22;20062;-76
2023/06/06 01:31:45;;;;;;;6.57;3.17;;;10.20;99.90;;;;;;6223215;22;20446;-76
2023/06/06 01:34:20;;;;;;;6.00;2.95;;;10.20;99.90;;;;;;6249701;22;20014;-76
2023/06/06 01:37:03;;;;;;;4.70;2.53;;;10.20;99.90;;;;;;6249636;22;20322;-76
2023/06/06 01:39:30;;;;;;;6.05;2.70;;;10.10;99.90;;;;;;6250001;22;20012;-77
2023/06/06 01:41:58;;;;;;;7.25;3.08;;;10.10;99.90;;;;;;6224332;22;20475;-77
2023/06/06 01:44:25;;;;;;;5.50;2.60;;;10.10;99.90;;;;;;6249141;22;20015;-76
2023/06/06 01:46:52;;;;;;;5.30;2.85;;;10.10;99.90;;;;;;6249980;22;20334;-76
2023/06/06 01:49:18;;;;;;;5.63;2.60;;;10.10;99.90;;;;;;6224310;22;20465;-76
2023/06/06 01:51:44;;;;;;;6.65;3.13;;;10.00;99.90;;;;;;6249550;22;20057;-76
2023/06/06 01:54:10;;;;;;;7.70;3.63;;;9.90;99.90;;;;;;6249114;22;20361;-75
2023/06/06 01:56:35;;;;;;;9.23;4.43;;;9.90;99.90;;;;;;6249308;22;20442;-76
2023/06/06 01:59:01;;;;;;;10.82;5.38;;;9.90;99.90;;;;;;6223666;22;20018;-76
2023/06/06 02:01:28;;;;;;;8.80;4.85;;;9.90;99.90;;;;;;6249510;22;20011;-76
2023/06/06 02:03:54;;;;;;;8.60;4.93;;;9.90;99.90;;;;;;6247632;22;20016;-75
2023/06/06 02:06:20;;;;;;;9.18;5.18;;;9.90;99.90;;;;;;6222602;22;20012;-75
2023/06/06 02:08:47;;;;;;;9.75;5.57;;;9.90;99.90;;;;;;6276180;22;20050;-76
2023/06/06 02:11:13;;;;;;;11.50;5.65;;;9.90;99.90;;;;;;6249069;22;20011;-75
2023/06/06 02:13:39;;;;;;;12.35;5.80;;;9.90;99.90;;;;;;6248917;22;20050;-76
2023/06/06 02:16:05;;;;;;;9.65;5.20;;;9.90;99.90;;;;;;6248926;22;20082;-75
2023/06/06 02:18:31;;;;;;;10.27;5.70;;;9.90;99.90;;;;;;6276790;22;20008;-76
2023/06/06 02:20:56;;;;;;;12.02;6.10;;;9.90;99.90;;;;;;6276676;22;20026;-76
2023/06/06 02:23:22;;;;;;;11.57;5.63;;;9.90;99.90;;;;;;6248943;22;20037;-76
2023/06/06 02:25:48;;;;;;;10.73;5.40;;;9.90;99.90;;;;;;6248871;22;20007;-76
2023/06/06 02:28:15;;;;;;;11.75;5.93;;;9.90;99.90;;;;;;6276071;22;20008;-76
2023/06/06 02:30:41;;;;;;;13.07;6.32;;;9.90;99.90;;;;;;6224002;22;20457;-76
2023/06/06 02:33:07;;;;;;;11.18;6.25;;;9.80;99.90;;;;;;6250170;22;20047;-76
2023/06/06 02:35:33;;;;;;;11.10;5.80;;;9.90;99.90;;;;;;6225423;22;20537;-76
2023/06/06 02:37:59;;;;;;;10.60;5.72;;;9.90;99.90;;;;;;6225967;22;20309;-76
2023/06/06 02:40:25;;;;;;;12.98;5.90;;;9.90;99.90;;;;;;6226029;22;20008;-75
2023/06/06 02:42:50;;;;;;;10.93;6.32;;;10.00;99.90;;;;;;6226038;22;20091;-75
2023/06/06 02:45:16;;;;;;;11.68;6.30;;;10.00;99.90;;;;;;6223998;22;20015;-75
2023/06/06 02:47:41;;;;;;;12.55;6.20;;;10.00;99.90;;;;;;6225340;22;20456;-76
2023/06/06 02:50:07;;;;;;;10.77;6.03;;;10.00;99.90;;;;;;6251279;22;20015;-76
2023/06/06 02:52:35;;;;;;;12.57;6.70;;;10.00;99.90;;;;;;6251595;22;20050;-77
2023/06/06 02:55:01;;;;;;;11.10;6.20;;;9.90;99.90;;;;;;6249932;22;20015;-76
2023/06/06 02:57:26;;;;;;;10.52;5.93;;;9.90;99.90;;;;;;6224547;22;20458;-76
2023/06/06 02:59:53;;;;;;;11.95;6.38;;;9.90;99.90;;;;;;6224930;22;20015;-76
2023/06/06 03:02:19;;;;;;;13.55;6.03;;;9.90;99.90;;;;;;6225927;22;20031;-76
2023/06/06 03:04:45;;;;;;;11.45;6.15;;;9.90;99.90;;;;;;6250629;22;20012;-76
2023/06/06 03:07:12;;;;;;;12.27;6.50;;;9.90;99.90;;;;;;6225181;22;20012;-76
2023/06/06 03:09:38;;;;;;;11.30;6.60;;;9.90;99.90;;;;;;6224094;22;20470;-75
2023/06/06 03:12:04;;;;;;;14.88;6.90;;;9.90;99.90;;;;;;6224637;22;20019;-76
2023/06/06 03:14:30;;;;;;;11.95;6.57;;;9.90;99.90;;;;;;6224081;22;20102;-76
2023/06/06 03:16:56;;;;;;;13.35;6.15;;;9.80;99.90;;;;;;6221403;22;20043;-76
2023/06/06 03:19:25;;;;;;;12.32;6.72;;;9.90;99.90;;;;;;6224075;22;20066;-76
2023/06/06 03:21:51;;;;;;;13.07;6.90;;;9.90;99.90;;;;;;6225680;22;20004;-76
2023/06/06 03:24:18;;;;;;;12.52;7.15;;;9.90;99.90;;;;;;6224114;22;20146;-76
2023/06/06 03:26:46;;;;;;;11.98;7.10;;;9.90;99.90;;;;;;6251113;22;20015;-75
2023/06/06 03:29:12;;;;;;;14.07;6.95;;;9.90;99.90;;;;;;6224988;22;20039;-76
2023/06/06 03:31:38;;;;;;;12.80;7.15;;;9.90;99.90;;;;;;6250742;22;20011;-76
2023/06/06 03:34:04;;;;;;;10.77;6.47;;;9.90;99.90;;;;;;6249003;22;20018;-76
2023/06/06 03:36:32;;;;;;;11.45;6.93;;;9.90;99.90;;;;;;6250643;22;20484;-76
2023/06/06 03:39:00;;;;;;;12.48;7.20;;;9.90;99.90;;;;;;6249339;22;20016;-76
2023/06/06 03:41:25;;;;;;;14.15;6.78;;;9.90;99.90;;;;;;6277447;22;20046;-76
2023/06/06 03:43:51;;;;;;;11.85;6.70;;;9.90;99.90;;;;;;6249522;22;20007;-75
2023/06/06 03:46:16;;;;;;;11.25;7.05;;;9.90;99.90;;;;;;6250167;22;20142;-75
2023/06/06 03:48:42;;;;;;;12.43;7.15;;;9.90;99.90;;;;;;6250205;22;20011;-75
2023/06/06 03:51:08;;;;;;;11.30;6.85;;;10.00;99.90;;;;;;6250668;22;20348;-75
2023/06/06 03:53:33;;;;;;;13.20;6.88;;;10.00;99.90;;;;;;6224568;22;20072;-75
2023/06/06 03:55:59;;;;;;;12.77;6.63;;;10.00;99.90;;;;;;6250533;22;20051;-75
2023/06/06 03:58:25;;;;;;;10.93;6.28;;;10.00;99.90;;;;;;6248360;22;20022;-76
2023/06/06 04:00:51;;;;;;;12.63;6.25;;;10.10;99.90;;;;;;6224300;22;20012;-75
2023/06/06 04:03:17;;;;;;;14.05;6.25;;;10.10;99.90;;;;;;6247521;22;20011;-75
2023/06/06 04:05:45;;;;;;;11.60;6.70;;;10.10;99.90;;;;;;6271731;22;20093;-75
2023/06/06 04:08:10;;;;;;;14.02;6.38;;;10.10;99.90;;;;;;6249021;22;20016;-75
2023/06/06 04:10:36;;;;;;;13.52;6.85;;;10.20;99.90;;;;;;6249942;22;20081;-75
2023/06/06 04:13:04;;;;;;;10.98;6.55;;;10.20;99.90;;;;;;6249840;22;20091;-75
2023/06/06 04:15:30;;;;;;;10.98;6.60;;;10.20;99.90;;;;;;6224191;22;20015;-75
2023/06/06 04:17:56;;;;;;;13.57;6.43;;;10.20;99.90;;;;;;6249445;22;20342;-75
2023/06/06 04:20:22;;;;;;;11.82;6.25;;;10.30;99.90;;;;;;6222300;22;20021;-75
2023/06/06 04:22:48;;;;;;;14.40;7.13;;;10.30;99.90;;;;;;6249502;22;20014;-75
2023/06/06 04:25:16;;;;;;;11.45;6.97;;;10.30;99.90;;;;;;6276144;22;20003;-75
2023/06/06 04:27:44;;;;;;;11.70;6.50;;;10.40;99.90;;;;;;6224437;22;20007;-75
2023/06/06 04:30:12;;;;;;;11.90;6.57;;;10.40;99.90;;;;;;6224341;22;20007;-75
2023/06/06 04:32:39;;;;;;;14.35;7.15;;;10.40;99.90;;;;;;6224849;22;20012;-76
2023/06/06 04:35:06;;;;;;;13.10;6.82;;;10.40;99.90;;;;;;6276845;22;20077;-76
2023/06/06 04:37:33;;;;;;;13.15;6.50;;;10.50;99.90;;;;;;6249689;22;20012;-77
2023/06/06 04:40:00;;;;;;;12.00;5.97;;;10.60;99.90;;;;;;6249175;22;20019;-75
2023/06/06 04:42:32;;;;;;;13.38;6.07;;;10.60;99.90;;;;;;6277185;22;20010;-75
2023/06/06 04:44:58;;;;;;;;;;;10.70;99.90;;;;;;6249361;22;20460;-75
2023/06/06 04:47:27;;;;;;;13.65;6.35;;;10.70;99.90;;;;;;6277384;22;19926;-75
2023/06/06 04:49:54;;;;;;;14.88;6.30;;;10.80;99.90;;;;;;6223278;22;20095;-75
2023/06/06 04:52:20;;;;;;;14.45;6.25;;;10.80;99.90;;;;;;6224708;22;20012;-75
2023/06/06 04:54:45;;;;;;;12.55;5.75;;;10.90;99.90;;;;;;6248937;22;20014;-75
2023/06/06 04:57:19;;;;;;;11.65;6.07;;;11.00;99.90;;;;;;6223100;22;20335;-75
2023/06/06 04:59:52;;;;;;;11.27;5.90;;;11.00;99.90;;;;;;6224044;22;20099;-75
2023/06/06 05:02:22;;;;;;;16.67;6.55;;;11.10;99.90;;;;;;6249163;22;20019;-76
2023/06/06 05:04:52;;;;;;;11.85;6.18;;;11.20;99.90;;;;;;6224110;22;20008;-75
2023/06/06 05:07:18;;;;;;;15.55;6.68;;;11.30;99.90;;;;;;6248568;22;20021;-76
2023/06/06 05:09:44;;;;;;;15.35;6.78;;;11.30;99.90;;;;;;6249528;22;20345;-75
2023/06/06 05:12:10;;;;;;;13.68;5.93;;;11.40;99.90;;;;;;6249224;22;20011;-76
2023/06/06 05:14:35;;;;;;;17.13;5.95;;;11.50;99.90;;;;;;6218895;23;20039;-75
2023/06/06 05:17:01;;;;;;;13.10;5.68;;;11.60;99.90;;;;;;6261392;22;20016;-75
2023/06/06 05:19:27;;;;;;;14.07;5.38;;;11.60;99.90;;;;;;6298034;22;20073;-76
2023/06/06 05:21:52;;;;;;;13.63;5.60;;;11.80;99.90;;;;;;6249211;22;20342;-75
2023/06/06 05:24:18;;;;;;;11.50;5.38;;;11.90;99.90;;;;;;6275006;22;20007;-76
2023/06/06 05:26:44;;;;;;;16.05;6.10;;;12.00;99.90;;;;;;6275785;22;20061;-76
2023/06/06 05:29:10;;;;;;;13.70;5.82;;;12.10;99.90;;;;;;6273498;22;20016;-75
2023/06/06 05:31:36;;;;;;;12.02;4.65;;;12.20;99.90;;;;;;6223776;22;20123;-77
2023/06/06 05:34:02;;;;;;;13.38;5.80;;;12.30;99.90;;;;;;6277089;22;20421;-76
2023/06/06 05:36:27;;;;;;;12.10;5.40;;;12.30;99.90;;;;;;6222950;22;20022;-77
2023/06/06 05:38:53;;;;;;;12.55;5.57;;;12.40;99.90;;;;;;6248315;22;20016;-76
2023/06/06 05:41:20;;;;;;;15.18;5.18;;;12.50;99.90;;;;;;6276698;22;20329;-77
2023/06/06 05:43:46;;;;;;;11.30;4.75;;;12.50;99.90;;;;;;6275756;22;20015;-78
2023/06/06 05:46:13;;;;;;;10.60;5.10;;;12.60;99.90;;;;;;6276449;22;20043;-76
2023/06/06 05:48:39;;;;;;;11.38;5.03;;;12.70;99.90;;;;;;6247919;22;20034;-77
2023/06/06 05:51:05;;;;;;;16.63;5.15;;;12.80;99.90;;;;;;6223906;22;20054;-76
2023/06/06 05:53:31;;;;;;;13.93;5.65;;;12.90;99.90;;;;;;6222347;22;20015;-77
2023/06/06 05:55:56;;;;;;;12.23;5.55;;;13.00;99.90;;;;;;6300422;22;20022;-77
2023/06/06 05:58:22;;;;;;;13.85;5.85;;;13.00;99.90;;;;;;6298830;22;20095;-76
2023/06/06 06:00:47;;;;;;;14.07;5.95;;;13.10;99.90;;;;;;6224041;22;20015;-76
2023/06/06 06:03:14;;;;;;;14.00;5.55;;;13.20;99.90;;;;;;6223776;22;20019;-76
2023/06/06 06:05:40;;;;;;;12.60;5.30;;;13.20;99.90;;;;;;6247879;22;20011;-76
2023/06/06 06:08:07;;;;;;;12.65;6.18;;;13.30;99.90;;;;;;6265157;22;20051;-76
2023/06/06 06:10:35;;;;;;;15.10;6.05;;;13.30;99.90;;;;;;6271453;22;20019;-76
2023/06/06 06:13:02;;;;;;;10.32;5.40;;;13.30;99.90;;;;;;6247685;22;20390;-76
2023/06/06 06:15:32;;;;;;;13.88;5.45;;;13.40;99.90;;;;;;6220719;22;20018;-76
2023/06/06 06:17:58;;;;;;;13.30;5.65;;;13.50;99.90;;;;;;6222741;22;20016;-76
2023/06/06 06:20:24;;;;;;;13.07;5.82;;;13.60;99.90;;;;;;6222007;22;20016;-76
2023/06/06 06:22:49;;;;;;;14.55;5.38;;;13.70;99.90;;;;;;6221712;22;20108;-77
2023/06/06 06:25:18;;;;;;;14.30;5.88;;;13.90;99.90;;;;;;6272828;22;20039;-77
2023/06/06 06:27:45;;;;;;;13.80;6.20;;;13.90;99.90;;;;;;6247903;22;20338;-76
2023/06/06 06:30:11;;;;;;;13.15;6.10;;;14.00;99.90;;;;;;6273380;22;20008;-76
2023/06/06 06:32:41;;;;;;;10.32;5.10;;;14.00;99.90;;;;;;6222095;22;20019;-76
2023/06/06 06:35:08;;;;;;;12.52;5.40;;;14.00;99.90;;;;;;6223497;22;20016;-76
2023/06/06 06:37:38;;;;;;;13.77;5.75;;;14.10;99.90;;;;;;6275721;22;20019;-76
2023/06/06 06:40:06;;;;;;;12.95;5.47;;;14.10;99.90;;;;;;6222989;22;20498;-76
2023/06/06 06:42:32;;;;;;;11.30;4.63;;;14.20;99.90;;;;;;6247590;22;20070;-76
2023/06/06 06:44:58;;;;;;;14.20;5.28;;;14.20;99.90;;;;;;6273743;22;20446;-76
2023/06/06 06:47:23;;;;;;;11.82;4.90;;;14.20;99.90;;;;;;6222856;22;20035;-76
2023/06/06 06:49:49;;;;;;;16.95;5.95;;;14.30;99.90;;;;;;6276185;22;20082;-76
2023/06/06 06:52:17;;;;;;;11.05;4.78;;;14.40;99.90;;;;;;6272635;22;20041;-76
2023/06/06 06:54:54;;;;;;;11.73;4.75;;;14.60;99.90;;;;;;6248384;22;20062;-76
2023/06/06 06:57:23;;;;;;;13.55;5.15;;;14.50;99.90;;;;;;6248494;22;20011;-76
2023/06/06 06:59:49;;;;;;;14.93;5.18;;;14.70;99.90;;;;;;6275451;22;20018;-76
2023/06/06 07:02:15;;;;;;;9.63;4.20;;;14.70;99.90;;;;;;6274384;22;20007;-76
2023/06/06 07:04:42;;;;;;;12.07;5.28;;;14.80;99.90;;;;;;6248517;22;20342;-76
2023/06/06 07:07:07;;;;;;;12.45;4.90;;;14.90;99.90;;;;;;6274932;22;20008;-76
2023/06/06 07:09:33;;;;;;;11.20;4.75;;;15.00;99.90;;;;;;6246852;22;20018;-76
2023/06/06 07:11:59;;;;;;;13.95;4.70;;;15.10;99.90;;;;;;6274178;22;20449;-76
2023/06/06 07:14:28;;;;;;;10.45;4.38;;;15.20;99.90;;;;;;6274035;22;20012;-76
2023/06/06 07:16:54;;;;;;;9.05;3.90;;;15.30;99.90;;;;;;6247169;22;20053;-76
2023/06/06 07:19:20;;;;;;;10.82;4.50;;;15.40;99.90;;;;;;6300709;22;20008;-76
2023/06/06 07:21:46;;;;;;;13.00;5.00;;;15.50;99.90;;;;;;6277554;22;20008;-75
2023/06/06 07:24:12;;;;;;;10.52;4.90;;;15.60;99.90;;;;;;6249808;22;20380;-76
2023/06/06 07:26:37;;;;;;;10.93;4.90;;;15.60;99.90;;;;;;6275288;22;20008;-76
2023/06/06 07:29:03;;;;;;;11.05;4.50;;;15.60;99.90;;;;;;6273927;22;20008;-75
2023/06/06 07:31:29;;;;;;;11.60;4.70;;;15.70;99.90;;;;;;6275102;22;20023;-75
2023/06/06 07:33:55;;;;;;;11.68;4.90;;;15.70;99.90;;;;;;6247702;22;20018;-75
2023/06/06 07:36:21;;;;;;;11.77;4.90;;;15.80;99.90;;;;;;6275243;22;20346;-80
2023/06/06 07:38:46;;;;;;;11.85;4.55;;;15.90;99.90;;;;;;6300711;22;20023;-74
2023/06/06 07:41:12;;;;;;;13.18;4.97;;;16.00;99.90;;;;;;6249314;22;20066;-82
2023/06/06 07:43:38;;;;;;;11.40;4.45;;;16.10;99.90;;;;;;6249835;22;20069;-75
2023/06/06 07:46:03;;;;;;;12.60;4.68;;;16.00;99.90;;;;;;6224038;22;20011;-75
2023/06/06 07:48:29;;;;;;;12.70;4.43;;;16.20;99.90;;;;;;6301138;22;20016;-74
2023/06/06 07:50:55;;;;;;;11.98;4.93;;;16.30;99.90;;;;;;6250260;22;20012;-75
2023/06/06 07:53:20;;;;;;;10.35;3.95;;;16.20;99.90;;;;;;6247854;22;20343;-75
2023/06/06 07:55:47;;;;;;;11.73;4.65;;;16.20;99.90;;;;;;6276677;22;20019;-74
2023/06/06 07:58:12;;;;;;;11.45;5.00;;;16.40;99.90;;;;;;6275246;22;20015;-75
2023/06/06 08:00:41;;;;;;;11.77;4.47;;;16.30;99.90;;;;;;6301218;22;20022;-75
2023/06/06 08:03:07;;;;;;;11.77;4.60;;;16.30;99.90;;;;;;6274728;22;20012;-75
2023/06/06 08:05:33;;;;;;;12.90;4.32;;;16.40;99.90;;;;;;6300656;22;20070;-75
2023/06/06 08:08:00;;;;;;;13.30;4.80;;;16.40;99.90;;;;;;6249216;22;20057;-75
2023/06/06 08:10:26;;;;;;;12.73;5.28;;;16.40;99.90;;;;;;6249179;22;20442;-75
2023/06/06 08:12:52;;;;;;;15.50;5.05;;;16.50;99.90;;;;;;6249203;22;20019;-75
2023/06/06 08:15:17;;;;;;;11.68;4.80;;;16.50;99.90;;;;;;6300078;22;20012;-75
2023/06/06 08:17:44;;;;;;;11.70;4.95;;;16.60;99.90;;;;;;6277050;22;20012;-75
2023/06/06 08:20:11;;;;;;;13.02;5.00;;;16.80;99.90;;;;;;6248760;22;20054;-74
2023/06/06 08:22:38;;;;;;;8.85;4.05;;;16.80;99.90;;;;;;6276679;22;20015;-75
2023/06/06 08:25:06;;;;;;;11.15;4.20;;;16.80;99.90;;;;;;6274992;22;20039;-75
2023/06/06 08:27:32;;;;;;;9.63;4.38;;;17.00;99.90;;;;;;6276810;22;20457;-74
2023/06/06 08:29:57;;;;;;;9.73;4.80;;;17.00;99.90;;;;;;6299975;22;20015;-74
2023/06/06 08:32:23;;;;;;;10.93;4.47;;;17.00;99.90;;;;;;6276941;22;20087;-74
2023/06/06 08:34:48;;;;;;;11.25;5.00;;;17.10;99.90;;;;;;6299973;22;20445;-74
2023/06/06 08:37:14;;;;;;;10.52;4.72;;;17.00;99.90;;;;;;6249601;22;20023;-75
2023/06/06 08:39:40;;;;;;;11.90;4.55;;;17.20;99.90;;;;;;6299981;22;20015;-73
2023/06/06 08:42:09;;;;;;;11.00;4.90;;;17.20;99.90;;;;;;6248641;22;20007;-73
2023/06/06 08:44:35;;;;;;;11.27;4.53;;;17.20;99.90;;;;;;6249386;22;20341;-74
2023/06/06 08:47:02;;;;;;;9.50;5.05;;;17.30;99.90;;;;;;6249965;22;20342;-74
2023/06/06 08:49:30;;;;;;;12.27;5.03;;;17.40;99.90;;;;;;6275318;22;20095;-74
2023/06/06 08:51:58;;;;;;;8.88;4.43;;;17.40;99.90;;;;;;6249709;22;20008;-74
2023/06/06 08:54:25;;;;;;;13.43;5.07;;;17.40;99.90;;;;;;6224104;22;20074;-74
2023/06/06 08:56:51;;;;;;;11.13;5.00;;;17.50;99.90;;;;;;6249399;22;20018;-75
2023/06/06 08:59:18;;;;;;;10.43;4.63;;;17.60;99.90;;;;;;6224149;22;20525;-75
2023/06/06 09:01:47;;;;;;;11.73;4.95;;;17.80;99.90;;;;;;6249086;22;20319;-75
2023/06/06 09:04:15;;;;;;;10.70;5.07;;;17.90;99.90;;;;;;6248896;22;20019;-74
2023/06/06 09:06:44;;;;;;;9.77;4.72;;;17.90;99.90;;;;;;6224371;22;20018;-75
2023/06/06 09:09:11;;;;;;;11.02;5.60;;;18.00;99.90;;;;;;6249030;22;20345;-75
2023/06/06 09:11:37;;;;;;;12.18;5.28;;;18.00;99.90;;;;;;6223831;22;20094;-74
2023/06/06 09:14:06;;;;;;;15.07;6.10;;;18.00;99.90;;;;;;6249376;22;20039;-74
2023/06/06 09:16:33;;;;;;;12.43;5.82;;;18.00;99.90;;;;;;6223801;22;20011;-74
2023/06/06 09:19:00;;;;;;;11.77;5.57;;;18.10;99.90;;;;;;6248411;22;20049;-75
2023/06/06 09:21:33;;;;;;;12.32;5.13;;;18.20;99.90;;;;;;6224184;22;20018;-75
2023/06/06 09:23:59;;;;;;;14.43;5.80;;;18.10;99.90;;;;;;6223769;22;20019;-75
2023/06/06 09:26:26;;;;;;;12.07;6.03;;;18.20;99.90;;;;;;6223644;22;20082;-75
2023/06/06 09:28:51;;;;;;;10.60;4.70;;;18.20;99.90;;;;;;6276467;22;20038;-75
2023/06/06 09:31:26;;;;;;;10.70;5.30;;;18.30;99.90;;;;;;6248867;22;20349;-74
2023/06/06 09:33:56;;;;;;;11.57;5.75;;;18.40;99.90;;;;;;6223735;22;20011;-74
2023/06/06 09:36:23;;;;;;;11.10;5.57;;;18.50;99.90;;;;;;6224270;22;20065;-75
2023/06/06 09:38:52;;;;;;;12.38;5.50;;;18.50;99.90;;;;;;6300175;22;20103;-76
2023/06/06 09:41:18;;;;;;;15.07;6.63;;;18.50;99.90;;;;;;6223285;22;20457;-74
2023/06/06 09:43:44;;;;;;;14.05;6.05;;;18.60;99.90;;;;;;6223492;22;20015;-75
2023/06/06 09:46:15;;;;;;;15.00;6.38;;;18.60;99.90;;;;;;6249291;22;20468;-75
2023/06/06 09:48:40;;;;;;;12.45;6.28;;;18.70;99.90;;;;;;6249048;22;20012;-75
2023/06/06 09:51:12;;;;;;;12.45;6.28;;;18.60;99.90;;;;;;6248583;22;20405;-75
2023/06/06 09:53:37;;;;;;;12.90;6.78;;;18.70;99.90;;;;;;6223168;22;20015;-75
2023/06/06 09:56:05;;;;;;;12.63;5.22;;;18.90;99.90;;;;;;6249139;22;20133;-75
2023/06/06 09:58:34;;;;;;;12.98;5.93;;;19.00;99.90;;;;;;6248786;22;20014;-74
2023/06/06 10:01:01;;;;;;;14.50;6.07;;;19.10;99.90;;;;;;6223680;22;20019;-75
2023/06/06 10:03:30;;;;;;;11.68;5.13;;;19.10;99.90;;;;;;6249230;22;20012;-75
2023/06/06 10:05:56;;;;;;;10.63;5.55;;;19.00;99.90;;;;;;6223376;22;20019;-75
2023/06/06 10:08:22;;;;;;;12.32;6.10;;;19.20;99.90;;;;;;6248696;22;20087;-74
2023/06/06 10:10:49;;;;;;;13.25;5.85;;;19.10;99.90;;;;;;6248567;22;20382;-75
2023/06/06 10:13:19;;;;;;;12.57;6.65;;;19.10;99.90;;;;;;6220031;22;20098;-75
2023/06/06 10:15:46;;;;;;;14.00;5.93;;;19.20;99.90;;;;;;6223586;22;20019;-74
2023/06/06 10:18:12;;;;;;;11.70;5.75;;;19.20;99.90;;;;;;6222741;22;20019;-75
2023/06/06 10:20:39;;;;;;;11.88;6.10;;;19.40;99.90;;;;;;6222539;22;20008;-74
2023/06/06 10:23:05;;;;;;;11.32;6.20;;;19.50;99.90;;;;;;6248741;22;20338;-75
2023/06/06 10:25:31;;;;;;;11.35;6.05;;;19.40;99.90;;;;;;6223721;22;20008;-75
2023/06/06 10:28:08;;;;;;;11.23;5.70;;;19.50;99.90;;;;;;6272312;22;20011;-74
2023/06/06 10:30:43;;;;;;;12.20;6.10;;;19.60;99.90;;;;;;6246993;22;20016;-75
2023/06/06 10:33:44;;;;;;;13.18;5.80;;;19.70;99.90;;;;;;6297829;22;20051;-75
2023/06/06 10:36:15;;;;;;;12.50;6.45;;;19.70;99.90;;;;;;6222767;22;20022;-75
2023/06/06 10:39:01;;;;;;;11.37;5.63;;;19.80;99.90;;;;;;6274912;22;20019;-75
2023/06/06 10:41:41;;;;;;;11.95;5.88;;;19.70;99.90;;;;;;6222179;22;20519;-75
2023/06/06 10:44:08;;;;;;;10.75;4.50;;;19.70;99.90;;;;;;6248804;22;20053;-75
2023/06/06 10:46:34;;;;;;;14.65;6.88;;;19.90;99.90;;;;;;6276058;22;20012;-75
2023/06/06 10:49:00;;;;;;;12.32;6.10;;;20.00;99.90;;;;;;6272963;22;20022;-75
2023/06/06 10:51:35;;;;;;;14.05;6.18;;;20.00;99.90;;;;;;6247356;22;20020;-75
2023/06/06 10:54:20;;;;;;;11.77;6.05;;;20.10;99.90;;;;;;6275846;22;20545;-75
2023/06/06 10:56:53;;;;;;;10.90;5.20;;;20.10;99.90;;;;;;6250120;22;20090;-75
2023/06/06 10:59:27;;;;;;;15.13;6.75;;;20.20;99.90;;;;;;6250441;22;20028;-75
2023/06/06 11:01:54;;;;;;;13.02;7.15;;;20.20;99.90;;;;;;6278108;22;20031;-75
2023/06/06 11:04:22;;;;;;;15.63;7.47;;;20.20;99.90;;;;;;6250036;22;20454;-75
2023/06/06 11:06:52;;;;;;;16.35;6.82;;;20.10;99.90;;;;;;6224401;22;20473;-75
2023/06/06 11:09:20;;;;;;;12.90;6.13;;;19.90;99.90;;;;;;6224971;22;20012;-75
2023/06/06 11:11:45;;;;;;;11.52;6.13;;;19.90;99.90;;;;;;6224432;22;20014;-75
2023/06/06 11:14:11;;;;;;;13.00;6.55;;;19.90;99.90;;;;;;6249942;22;20091;-75
2023/06/06 11:16:39;;;;;;;13.35;6.13;;;20.00;99.90;;;;;;6302487;22;20086;-75
2023/06/06 11:19:17;;;;;;;12.10;6.60;;;20.20;99.90;;;;;;6276467;22;20086;-75
2023/06/06 11:21:45;;;;;;;10.75;6.45;;;20.20;99.90;;;;;;6250536;22;20015;-75
2023/06/06 11:24:12;;;;;;;11.40;6.05;;;20.10;99.90;;;;;;6248983;22;20008;-75
2023/06/06 11:26:39;;;;;;;13.05;6.28;;;20.00;99.90;;;;;;6224600;22;20012;-75
2023/06/06 11:29:07;;;;;;;11.57;5.13;;;20.10;99.90;;;;;;6224857;22;20089;-76
2023/06/06 11:31:35;;;;;;;12.65;6.47;;;20.10;99.90;;;;;;6248927;22;20061;-75
2023/06/06 11:34:12;;;;;;;11.13;6.05;;;20.20;99.90;;;;;;6250958;22;20069;-75
2023/06/06 11:36:39;;;;;;;11.85;5.78;;;20.10;99.90;;;;;;6249842;22;20008;-75
2023/06/06 11:39:07;;;;;;;14.13;6.65;;;20.10;99.90;;;;;;6277435;22;20008;-75
2023/06/06 11:41:40;;;;;;;13.50;6.10;;;20.00;99.90;;;;;;6224533;22;20442;-76
2023/06/06 11:44:06;;;;;;;12.88;5.38;;;20.00;99.90;;;;;;6223881;22;20056;-76
2023/06/06 11:46:49;;;;;;;11.93;5.75;;;20.00;99.90;;;;;;6249853;22;20433;-76
2023/06/06 11:49:16;;;;;;;12.77;5.55;;;20.00;99.90;;;;;;6223906;22;20007;-76
2023/06/06 11:51:42;;;;;;;12.68;5.25;;;20.00;99.90;;;;;;6250032;22;20012;-76
2023/06/06 11:54:12;;;;;;;16.23;5.15;;;19.90;99.90;;;;;;6223862;22;20503;-76
2023/06/06 11:56:38;;;;;;;11.38;5.47;;;20.00;99.90;;;;;;6249878;22;20011;-76
2023/06/06 11:59:05;;;;;;;13.30;6.38;;;20.00;99.90;;;;;;6249058;22;20407;-76
2023/06/06 12:01:30;;;;;;;11.52;5.75;;;20.10;99.90;;;;;;6223642;22;20047;-76
2023/06/06 12:03:56;;;;;;;14.82;6.28;;;20.10;99.90;;;;;;6300921;22;20019;-76
2023/06/06 12:06:22;;;;;;;12.55;6.10;;;20.10;99.90;;;;;;6222891;22;20016;-76
2023/06/06 12:08:48;;;;;;;12.07;5.68;;;20.00;99.90;;;;;;6272528;22;20061;-75
2023/06/06 12:11:26;;;;;;;12.98;5.85;;;20.20;99.90;;;;;;6247915;22;20447;-76
2023/06/06 12:13:54;;;;;;;12.73;6.20;;;20.00;99.90;;;;;;6275627;22;20016;-76
2023/06/06 12:16:27;;;;;;;16.25;5.80;;;20.10;99.90;;;;;;6276219;22;20018;-76
2023/06/06 12:18:54;;;;;;;14.00;5.40;;;20.00;99.90;;;;;;6247260;22;20070;-76
2023/06/06 12:21:21;;;;;;;13.57;6.75;;;20.00;99.90;;;;;;6300124;22;20019;-75
2023/06/06 12:23:47;;;;;;;13.30;5.05;;;20.00;99.90;;;;;;6276559;22;20015;-74
2023/06/06 12:26:16;;;;;;;10.27;5.55;;;19.90;99.90;;;;;;6248186;22;20011;-75
2023/06/06 12:28:56;;;;;;;13.27;5.88;;;19.90;99.90;;;;;;6248925;22;20015;-76
2023/06/06 12:31:22;;;;;;;12.68;5.68;;;20.00;99.90;;;;;;6248993;22;20018;-76
2023/06/06 12:33:47;;;;;;;10.70;4.97;;;19.90;99.90;;;;;;6248468;22;20015;-76
2023/06/06 12:36:17;;;;;;;12.50;6.10;;;19.90;99.90;;;;;;6223589;22;20094;-76
2023/06/06 12:38:44;;;;;;;10.70;5.63;;;19.70;99.90;;;;;;6248548;22;20345;-76
2023/06/06 12:41:09;;;;;;;10.93;5.35;;;19.60;99.90;;;;;;6223041;22;20015;-75